Time;durP1;ratioP1;P1;durP2;ratioP2;P2;SDS_P1;SDS_P2;PMS_P1;PMS_P2;Temp;Humidity;BMP_temperature;BMP_pressure;BME280_temperature;BME280_humidity;BME280_pressure;Samples;Min_cycle;Max_cycle;Signal;HPM_P1;HPM_P2
2022/12/19 00:01:15;;;;;;;83.63;80.32;;;14.10;97.50;;;;;;5027010;28;19909;-71
2022/12/19 00:03:46;;;;;;;82.78;79.47;;;14.10;97.40;;;;;;5028248;28;20030;-78
2022/12/19 00:06:13;;;;;;;79.70;76.50;;;14.10;97.40;;;;;;5027007;28;20026;-78
2022/12/19 00:08:44;;;;;;;77.43;74.32;;;14.00;97.40;;;;;;5010717;28;20033;-78
2022/12/19 00:11:12;;;;;;;73.88;70.93;;;14.00;97.50;;;;;;5010239;28;20045;-78
2022/12/19 00:13:39;;;;;;;78.07;74.97;;;14.00;97.50;;;;;;5026804;28;20389;-79
2022/12/19 00:16:09;;;;;;;78.55;75.45;;;14.00;97.50;;;;;;5028187;28;20402;-78
2022/12/19 00:18:35;;;;;;;80.63;77.43;;;14.00;97.50;;;;;;5026707;28;20021;-78
2022/12/19 00:21:02;;;;;;;;;;;14.00;97.50;;;;;;4994412;28;20033;-78
2022/12/19 00:23:28;;;;;;;;;;;13.90;97.40;;;;;;5027149;28;19917;-79
2022/12/19 00:25:54;;;;;;;77.53;74.32;;;14.00;97.50;;;;;;5026699;28;20047;-78
2022/12/19 00:28:20;;;;;;;72.28;69.38;;;13.90;97.50;;;;;;5010485;28;20029;-78
2022/12/19 00:30:46;;;;;;;;;;;14.00;97.50;;;;;;5010845;28;20065;-78
2022/12/19 00:33:12;;;;;;;72.18;69.28;;;14.00;97.50;;;;;;5027771;28;19940;-78
2022/12/19 00:35:37;;;;;;;75.90;72.90;;;14.00;97.50;;;;;;5026883;28;20116;-78
2022/12/19 00:38:03;;;;;;;72.90;70.05;;;14.00;97.50;;;;;;4993778;28;20040;-78
2022/12/19 00:40:29;;;;;;;74.70;71.80;;;14.00;97.50;;;;;;5027816;28;20449;-78
2022/12/19 00:42:55;;;;;;;73.40;70.60;;;14.10;97.50;;;;;;5009600;28;20116;-78
2022/12/19 00:45:21;;;;;;;73.93;70.93;;;14.10;97.50;;;;;;5026545;28;20030;-78
2022/12/19 00:47:46;;;;;;;72.03;69.13;;;14.10;97.50;;;;;;5010149;28;20069;-78
2022/12/19 00:50:12;;;;;;;72.82;69.88;;;14.00;97.50;;;;;;5026356;28;20040;-78
2022/12/19 00:52:38;;;;;;;73.88;70.88;;;14.00;97.50;;;;;;5010101;28;20490;-78
2022/12/19 00:55:04;;;;;;;68.68;65.88;;;14.00;97.50;;;;;;5026425;28;20032;-78
2022/12/19 00:57:29;;;;;;;;;;;14.00;97.60;;;;;;5010465;28;20083;-78
2022/12/19 00:59:55;;;;;;;67.65;64.95;;;14.10;97.60;;;;;;5010247;28;20123;-78
2022/12/19 01:02:21;;;;;;;68.20;65.50;;;14.10;97.50;;;;;;5026144;28;20486;-78
2022/12/19 01:04:46;;;;;;;67.47;64.78;;;14.00;97.60;;;;;;5026350;28;20044;-79
2022/12/19 01:07:12;;;;;;;69.05;66.35;;;14.10;97.60;;;;;;5010018;28;20033;-78
2022/12/19 01:09:38;;;;;;;73.80;70.90;;;14.10;97.60;;;;;;5026315;28;20558;-78
2022/12/19 01:14:51;;;;;;;77.43;74.32;;;14.10;97.50;;;;;;5028755;28;20041;-78
2022/12/19 01:17:17;;;;;;;75.13;72.13;;;14.10;97.50;;;;;;5025925;28;20033;-78
2022/12/19 01:19:43;;;;;;;73.03;70.13;;;14.10;97.50;;;;;;4993286;28;20031;-78
2022/12/19 01:22:09;;;;;;;78.05;74.95;;;14.10;97.50;;;;;;4993016;28;20076;-78
2022/12/19 01:24:34;;;;;;;78.70;75.53;;;14.00;97.50;;;;;;5027277;28;20429;-78
2022/12/19 01:27:00;;;;;;;81.78;78.50;;;14.00;97.50;;;;;;4997203;28;20038;-78
2022/12/19 01:29:26;;;;;;;82.88;79.57;;;13.90;97.50;;;;;;5013666;28;20030;-78
2022/12/19 01:31:51;;;;;;;81.47;78.28;;;13.80;97.50;;;;;;5013576;28;20456;-78
2022/12/19 01:34:17;;;;;;;87.25;83.85;;;13.80;97.50;;;;;;5030950;28;20116;-78
2022/12/19 01:36:43;;;;;;;85.90;82.60;;;13.80;97.60;;;;;;5013458;28;20037;-78
2022/12/19 01:39:08;;;;;;;86.28;82.93;;;13.70;97.60;;;;;;5013393;28;20049;-78
2022/12/19 01:41:34;;;;;;;86.97;83.57;;;13.70;97.60;;;;;;5013278;28;20438;-78
2022/12/19 01:44:02;;;;;;;77.22;74.22;;;13.70;97.70;;;;;;5013038;28;20025;-78
2022/12/19 01:46:33;;;;;;;77.10;74.10;;;13.70;97.70;;;;;;5029571;28;20513;-78
2022/12/19 01:49:01;;;;;;;75.57;72.68;;;13.70;97.70;;;;;;5029745;28;20073;-78
2022/12/19 01:51:40;;;;;;;77.35;74.35;;;13.70;97.70;;;;;;5029916;28;20208;-79
2022/12/19 01:54:10;;;;;;;78.97;75.88;;;13.80;97.70;;;;;;5030788;28;20254;-78
2022/12/19 01:56:41;;;;;;;80.60;77.50;;;13.70;97.70;;;;;;5030856;28;20036;-78
2022/12/19 01:59:12;;;;;;;86.55;83.15;;;13.80;97.70;;;;;;5029478;28;20072;-78
2022/12/19 02:01:40;;;;;;;81.70;78.53;;;13.80;97.70;;;;;;5029340;28;20017;-78
2022/12/19 02:04:06;;;;;;;79.07;76.07;;;13.80;97.70;;;;;;5029123;28;20028;-78
2022/12/19 02:06:33;;;;;;;79.80;76.70;;;13.80;97.90;;;;;;5029292;28;20390;-78
2022/12/19 02:09:00;;;;;;;83.35;80.10;;;13.80;97.70;;;;;;4996672;28;20489;-78
2022/12/19 02:11:26;;;;;;;75.93;73.03;;;13.90;97.70;;;;;;5029232;28;20047;-78
2022/12/19 02:13:52;;;;;;;79.30;76.22;;;13.90;97.70;;;;;;5012531;28;20128;-78
2022/12/19 02:16:34;;;;;;;76.13;73.20;;;13.90;97.90;;;;;;5029240;28;20071;-78
2022/12/19 02:19:27;;;;;;;77.60;74.60;;;14.00;97.80;;;;;;5029488;28;20440;-78
2022/12/19 02:22:28;;;;;;;80.05;76.95;;;14.00;97.80;;;;;;5028986;28;20124;-78
2022/12/19 02:25:38;;;;;;;80.35;77.25;;;14.00;97.70;;;;;;5028914;28;20018;-78
2022/12/19 02:28:06;;;;;;;81.68;78.47;;;14.10;97.70;;;;;;5026265;28;20029;-78
2022/12/19 02:30:49;;;;;;;88.07;84.68;;;14.20;97.70;;;;;;5029028;28;20401;-78
2022/12/19 02:33:34;;;;;;;83.18;79.97;;;14.10;97.60;;;;;;5028638;28;20091;-78
2022/12/19 02:36:17;;;;;;;85.47;82.18;;;14.10;97.60;;;;;;5028107;28;20045;-78
2022/12/19 02:39:06;;;;;;;88.00;84.60;;;14.10;97.70;;;;;;5028433;28;20047;-78
2022/12/19 02:41:44;;;;;;;89.32;85.82;;;14.20;97.70;;;;;;5028988;28;20024;-78
2022/12/19 02:44:22;;;;;;;85.95;82.65;;;14.20;97.70;;;;;;5028624;28;20056;-78
2022/12/19 02:46:49;;;;;;;85.50;82.20;;;14.20;97.60;;;;;;5029892;28;20025;-78
2022/12/19 02:49:15;;;;;;;80.88;77.78;;;14.10;97.70;;;;;;5029858;28;20029;-78
2022/12/19 02:51:41;;;;;;;78.95;75.95;;;14.10;97.60;;;;;;5011863;28;20383;-78
2022/12/19 02:54:07;;;;;;;82.93;79.72;;;14.10;97.70;;;;;;5011878;28;20038;-78
2022/12/19 02:56:48;;;;;;;83.25;80.05;;;14.20;97.70;;;;;;5030329;28;20464;-78
2022/12/19 02:59:38;;;;;;;78.88;75.78;;;14.20;97.70;;;;;;5030094;28;20026;-78
2022/12/19 03:02:18;;;;;;;78.13;75.13;;;14.20;97.70;;;;;;5028300;28;20040;-78
2022/12/19 03:04:48;;;;;;;81.72;78.57;;;14.20;97.70;;;;;;5029529;28;20022;-78
2022/12/19 03:07:35;;;;;;;81.90;78.80;;;14.30;97.70;;;;;;5029534;28;20031;-78
2022/12/19 03:10:37;;;;;;;72.90;70.10;;;14.30;97.70;;;;;;5028186;28;20044;-78
2022/12/19 03:13:09;;;;;;;73.35;70.55;;;14.30;97.70;;;;;;5029232;28;20029;-78
2022/12/19 03:15:36;;;;;;;74.10;71.25;;;14.30;97.70;;;;;;5028114;28;20107;-78
2022/12/19 03:18:02;;;;;;;75.10;72.20;;;14.30;97.70;;;;;;5027874;28;20025;-78
2022/12/19 03:20:51;;;;;;;76.63;73.68;;;14.40;97.70;;;;;;5011598;28;20033;-78
2022/12/19 03:23:18;;;;;;;76.55;73.63;;;14.40;97.70;;;;;;5028318;28;20053;-78
2022/12/19 03:25:51;;;;;;;76.53;73.63;;;14.40;97.70;;;;;;5028278;28;20386;-78
2022/12/19 03:28:27;;;;;;;75.60;72.70;;;14.40;97.70;;;;;;5029500;28;20029;-78
2022/12/19 03:30:54;;;;;;;78.32;75.32;;;14.40;97.70;;;;;;5028990;28;20470;-78
2022/12/19 03:33:22;;;;;;;77.85;74.85;;;14.40;97.70;;;;;;5027471;28;20033;-78
2022/12/19 03:35:49;;;;;;;75.25;72.35;;;14.40;97.70;;;;;;5027708;28;20049;-78
2022/12/19 03:38:18;;;;;;;82.57;79.40;;;14.50;97.70;;;;;;5011198;28;20030;-78
2022/12/19 03:40:46;;;;;;;81.53;78.43;;;14.50;97.70;;;;;;5011052;28;20032;-78
2022/12/19 03:43:14;;;;;;;75.43;72.53;;;14.50;97.70;;;;;;5028846;28;20026;-78
2022/12/19 03:45:56;;;;;;;70.53;67.82;;;14.50;97.70;;;;;;5027455;28;20025;-78
2022/12/19 03:48:58;;;;;;;75.07;72.22;;;14.40;97.70;;;;;;5027143;28;20052;-78
2022/12/19 03:51:39;;;;;;;75.95;73.05;;;14.50;97.70;;;;;;4993082;28;20184;-76
2022/12/19 03:54:35;;;;;;;67.30;64.70;;;14.50;97.70;;;;;;5027989;28;20045;-78
2022/12/19 03:57:06;;;;;;;64.32;61.85;;;14.50;97.70;;;;;;5028127;28;20509;-78
2022/12/19 03:59:39;;;;;;;61.35;59.05;;;14.50;97.70;;;;;;5027412;28;20075;-79
2022/12/19 04:02:07;;;;;;;66.90;64.40;;;14.50;97.70;;;;;;5027265;28;20047;-78
2022/12/19 04:04:41;;;;;;;63.45;61.05;;;14.50;97.70;;;;;;5027038;28;20049;-78
2022/12/19 04:07:07;;;;;;;61.28;58.97;;;14.40;97.70;;;;;;5028424;28;20033;-79
2022/12/19 04:09:36;;;;;;;62.67;60.28;;;14.50;97.70;;;;;;5011113;28;20064;-78
2022/12/19 04:12:07;;;;;;;58.05;55.85;;;14.50;97.80;;;;;;5027042;28;20044;-78
2022/12/19 04:14:36;;;;;;;50.42;48.53;;;14.50;97.70;;;;;;5026821;28;20021;-78
2022/12/19 04:17:26;;;;;;;55.10;53.00;;;14.40;97.70;;;;;;5026897;28;20390;-78
2022/12/19 04:20:11;;;;;;;57.70;55.50;;;14.50;97.80;;;;;;5026793;28;20026;-78
2022/12/19 04:23:04;;;;;;;61.22;58.92;;;14.50;97.70;;;;;;5026558;28;20460;-78
2022/12/19 04:25:38;;;;;;;57.08;54.90;;;14.40;97.70;;;;;;5026754;28;20022;-78
2022/12/19 04:28:09;;;;;;;60.00;57.70;;;14.40;97.80;;;;;;5026696;28;20044;-78
2022/12/19 04:30:38;;;;;;;58.80;56.60;;;14.50;97.80;;;;;;5027967;28;20025;-78
2022/12/19 04:33:04;;;;;;;56.20;54.10;;;14.40;97.70;;;;;;5026571;28;20022;-78
2022/12/19 04:35:30;;;;;;;;;;;14.40;97.70;;;;;;5010754;28;20029;-78
2022/12/19 04:37:56;;;;;;;60.25;57.95;;;14.40;97.80;;;;;;5027805;28;19913;-78
2022/12/19 04:40:21;;;;;;;63.67;61.28;;;14.40;97.70;;;;;;5010272;28;20409;-76
2022/12/19 04:42:47;;;;;;;62.60;60.20;;;14.40;97.70;;;;;;5026826;28;20387;-76
2022/12/19 04:45:13;;;;;;;65.35;62.85;;;14.40;97.70;;;;;;5010318;28;20406;-76
2022/12/19 04:47:38;;;;;;;64.60;62.10;;;14.50;97.70;;;;;;4993794;28;20087;-76
2022/12/19 04:50:05;;;;;;;66.07;63.58;;;14.50;97.70;;;;;;5026980;28;20065;-76
2022/12/19 04:52:30;;;;;;;;;;;14.40;97.70;;;;;;5010434;28;20043;-76
2022/12/19 04:54:56;;;;;;;66.93;64.35;;;14.50;97.70;;;;;;5027834;28;19913;-76
2022/12/19 04:57:22;;;;;;;51.03;49.13;;;14.50;97.70;;;;;;5010284;28;20032;-76
2022/12/19 04:59:47;;;;;;;58.10;55.90;;;14.50;97.70;;;;;;5009332;28;20079;-76
2022/12/19 05:02:13;;;;;;;56.75;54.60;;;14.50;97.80;;;;;;5009866;28;20021;-75
2022/12/19 05:04:39;;;;;;;52.67;50.67;;;14.50;97.80;;;;;;4993586;28;20038;-76
2022/12/19 05:07:04;;;;;;;56.85;54.70;;;14.50;97.80;;;;;;5026231;28;20059;-76
2022/12/19 05:09:30;;;;;;;54.72;52.63;;;14.50;97.80;;;;;;5010141;28;20033;-76
2022/12/19 05:11:56;;;;;;;53.80;51.78;;;14.50;97.80;;;;;;5026678;28;20048;-76
2022/12/19 05:14:21;;;;;;;46.85;45.05;;;14.60;97.80;;;;;;5009754;28;20505;-81
2022/12/19 05:16:47;;;;;;;54.30;52.20;;;14.60;97.80;;;;;;5009930;28;20105;-82
2022/12/19 05:19:13;;;;;;;47.17;45.38;;;14.60;97.80;;;;;;5026240;28;20033;-82
2022/12/19 05:21:39;;;;;;;50.40;48.50;;;14.60;97.70;;;;;;5025968;28;20064;-81
2022/12/19 05:24:06;;;;;;;49.53;47.63;;;14.70;97.70;;;;;;5009724;28;20072;-81
2022/12/19 05:26:31;;;;;;;;;;;14.70;97.80;;;;;;5010116;28;20117;-82
2022/12/19 05:28:57;;;;;;;41.05;39.50;;;14.70;97.80;;;;;;5026336;28;20429;-82
2022/12/19 05:31:23;;;;;;;47.92;46.13;;;14.70;97.70;;;;;;5026436;28;20389;-82
2022/12/19 05:33:49;;;;;;;46.22;44.47;;;14.70;97.80;;;;;;5026102;28;20033;-82
2022/12/19 05:36:17;;;;;;;51.47;49.50;;;14.70;97.80;;;;;;5009496;28;20537;-82
2022/12/19 05:38:43;;;;;;;52.40;50.40;;;14.70;97.80;;;;;;5026214;28;20148;-82
2022/12/19 05:41:10;;;;;;;;;;;14.70;97.80;;;;;;5028143;28;20024;-82
2022/12/19 05:43:36;;;;;;;49.72;47.83;;;14.70;97.70;;;;;;5026183;28;19909;-81
2022/12/19 05:46:03;;;;;;;53.58;51.58;;;14.70;97.70;;;;;;5026280;28;20034;-82
2022/12/19 05:48:29;;;;;;;50.58;48.67;;;14.70;97.70;;;;;;5027537;28;20025;-82
2022/12/19 05:50:55;;;;;;;51.75;49.78;;;14.70;97.70;;;;;;5025894;28;20107;-82
2022/12/19 05:53:20;;;;;;;53.22;51.22;;;14.60;97.70;;;;;;5025914;28;20083;-82
2022/12/19 05:55:46;;;;;;;57.78;55.58;;;14.60;97.80;;;;;;5009747;28;20082;-82
2022/12/19 05:58:12;;;;;;;61.63;59.25;;;14.60;97.80;;;;;;5009378;28;20034;-82
2022/12/19 06:00:38;;;;;;;62.65;60.25;;;14.60;97.80;;;;;;5025952;28;20025;-82
2022/12/19 06:03:04;;;;;;;63.65;61.25;;;14.60;97.80;;;;;;5025802;28;20092;-81
2022/12/19 06:05:30;;;;;;;57.25;55.05;;;14.60;97.80;;;;;;5027513;28;20039;-82
2022/12/19 06:07:56;;;;;;;59.42;57.13;;;14.60;97.80;;;;;;5027809;28;20060;-81
2022/12/19 06:10:22;;;;;;;62.45;60.05;;;14.60;97.80;;;;;;5027282;28;20040;-82
2022/12/19 06:12:47;;;;;;;66.50;63.90;;;14.60;97.80;;;;;;5012622;28;20037;-82
2022/12/19 06:15:13;;;;;;;65.30;62.80;;;14.60;97.80;;;;;;5030760;28;20492;-81
2022/12/19 06:17:39;;;;;;;64.80;62.30;;;14.60;97.80;;;;;;5029473;28;20038;-81
2022/12/19 06:20:05;;;;;;;66.97;64.38;;;14.60;97.80;;;;;;5029051;28;20539;-81
2022/12/19 06:22:31;;;;;;;71.07;68.32;;;14.60;97.80;;;;;;5016014;28;20064;-81
2022/12/19 06:24:57;;;;;;;60.13;57.80;;;14.60;97.80;;;;;;5041074;28;20390;-82
2022/12/19 06:27:22;;;;;;;61.97;59.58;;;14.60;97.80;;;;;;5038807;28;20045;-82
2022/12/19 06:29:48;;;;;;;56.28;54.08;;;14.60;97.80;;;;;;5030331;28;20486;-82
2022/12/19 06:32:14;;;;;;;59.80;57.50;;;14.60;97.80;;;;;;5012514;28;20445;-82
2022/12/19 06:34:39;;;;;;;69.82;67.13;;;14.60;97.80;;;;;;5028777;28;20029;-81
2022/12/19 06:37:05;;;;;;;71.47;68.78;;;14.60;97.80;;;;;;5029199;28;20034;-82
2022/12/19 06:39:31;;;;;;;82.32;79.13;;;14.60;97.70;;;;;;5028902;28;20081;-82
2022/12/19 06:44:40;;;;;;;82.28;79.07;;;14.50;97.70;;;;;;5029252;28;20060;-82
2022/12/19 06:47:06;;;;;;;78.95;75.85;;;14.40;97.70;;;;;;5012609;28;20536;-82
2022/12/19 06:49:32;;;;;;;77.90;74.80;;;14.40;97.70;;;;;;5029147;28;20033;-82
2022/12/19 06:51:59;;;;;;;99.60;95.70;;;14.40;97.70;;;;;;4998839;28;20448;-83
2022/12/19 06:54:25;;;;;;;101.78;97.78;;;14.40;97.70;;;;;;5031719;28;20026;-83
2022/12/19 06:56:50;;;;;;;96.90;93.10;;;14.30;97.70;;;;;;5031556;28;20095;-82
2022/12/19 06:59:16;;;;;;;92.57;88.90;;;14.30;97.70;;;;;;5032571;28;20434;-83
2022/12/19 07:02:00;;;;;;;96.18;92.38;;;14.30;97.80;;;;;;5031373;28;20037;-82
2022/12/19 07:04:31;;;;;;;92.07;88.43;;;14.20;97.70;;;;;;5031666;28;20398;-83
2022/12/19 07:06:58;;;;;;;84.30;81.00;;;14.20;97.70;;;;;;5030652;28;20033;-79
2022/12/19 07:09:25;;;;;;;92.22;88.53;;;14.20;97.70;;;;;;5027914;28;20017;-79
2022/12/19 07:11:51;;;;;;;91.40;87.80;;;14.20;97.80;;;;;;5011886;28;20037;-79
2022/12/19 07:14:17;;;;;;;83.18;79.88;;;14.20;97.80;;;;;;5027376;28;20033;-79
2022/12/19 07:16:45;;;;;;;83.97;80.65;;;14.20;97.80;;;;;;5011228;28;20072;-78
2022/12/19 07:19:11;;;;;;;77.07;74.00;;;14.20;97.80;;;;;;5011553;28;20029;-79
2022/12/19 07:21:37;;;;;;;70.57;67.78;;;14.20;97.80;;;;;;5027858;28;20026;-82
2022/12/19 07:24:03;;;;;;;;;;;14.30;97.80;;;;;;5011389;28;20108;-83
2022/12/19 07:26:29;;;;;;;115.65;110.88;;;14.30;97.80;;;;;;5028152;28;20372;-82
2022/12/19 07:28:54;;;;;;;102.45;98.35;;;14.20;97.60;;;;;;4995719;28;20040;-83
2022/12/19 07:31:20;;;;;;;82.03;78.75;;;14.20;97.70;;;;;;5028629;28;20087;-82
2022/12/19 07:33:46;;;;;;;92.78;89.07;;;14.10;97.70;;;;;;5011849;28;20072;-82
2022/12/19 07:36:12;;;;;;;98.60;94.70;;;14.10;97.80;;;;;;5012309;28;20034;-83
2022/12/19 07:38:37;;;;;;;118.97;114.07;;;14.10;97.80;;;;;;5012081;28;20080;-72
2022/12/19 07:41:03;;;;;;;123.88;118.78;;;14.10;97.80;;;;;;5030002;28;20029;-82
2022/12/19 07:43:29;;;;;;;115.47;110.80;;;14.10;97.80;;;;;;5013016;28;20034;-83
2022/12/19 07:45:55;;;;;;;135.38;129.60;;;14.00;97.90;;;;;;5030841;28;20064;-81
2022/12/19 07:48:21;;;;;;;115.72;110.93;;;14.00;97.90;;;;;;5029927;28;20025;-81
2022/12/19 07:50:47;;;;;;;107.13;102.72;;;14.00;97.90;;;;;;5030846;28;20437;-81
2022/12/19 07:53:14;;;;;;;100.85;96.75;;;14.00;97.90;;;;;;4998426;28;20045;-82
2022/12/19 07:55:39;;;;;;;;;;;14.00;98.00;;;;;;5030109;28;20040;-81
2022/12/19 07:58:05;;;;;;;109.18;104.63;;;14.00;98.00;;;;;;5012387;28;19917;-81
2022/12/19 08:00:31;;;;;;;123.30;118.10;;;14.00;97.90;;;;;;5012677;28;20123;-82
2022/12/19 08:03:00;;;;;;;141.32;135.23;;;14.00;97.90;;;;;;5012558;28;20037;-83
2022/12/19 08:05:26;;;;;;;160.82;153.65;;;14.00;97.90;;;;;;5011716;28;20035;-83
2022/12/19 08:07:51;;;;;;;159.70;152.57;;;13.90;97.80;;;;;;5016265;28;20440;-82
2022/12/19 08:10:18;;;;;;;170.65;163.15;;;13.90;97.80;;;;;;5018893;28;20038;-82
2022/12/19 08:12:44;;;;;;;153.73;146.82;;;13.80;97.80;;;;;;5027166;28;20096;-81
2022/12/19 08:15:09;;;;;;;156.70;149.60;;;13.80;97.90;;;;;;5027324;28;20474;-81
2022/12/19 08:17:37;;;;;;;149.50;142.82;;;13.80;97.90;;;;;;4994456;28;20104;-81
2022/12/19 08:20:04;;;;;;;152.15;145.35;;;13.80;97.90;;;;;;4994974;28;20060;-81
2022/12/19 08:22:30;;;;;;;147.02;140.45;;;13.90;98.00;;;;;;5010406;28;20057;-81
2022/12/19 08:24:56;;;;;;;147.00;140.40;;;13.90;98.00;;;;;;5027492;28;20087;-80
2022/12/19 08:27:22;;;;;;;141.70;135.30;;;13.90;98.00;;;;;;5010547;28;20508;-81
2022/12/19 08:29:48;;;;;;;136.15;130.02;;;14.00;98.00;;;;;;5028054;28;20119;-81
2022/12/19 08:32:15;;;;;;;133.32;127.32;;;14.00;98.00;;;;;;5027863;28;20095;-81
2022/12/19 08:34:41;;;;;;;129.35;123.65;;;14.10;98.00;;;;;;5027340;28;20505;-82
2022/12/19 08:37:07;;;;;;;128.95;123.15;;;14.10;98.00;;;;;;5027307;28;20115;-81
2022/12/19 08:39:33;;;;;;;125.00;119.45;;;14.10;98.00;;;;;;4994121;28;20478;-81
2022/12/19 08:41:59;;;;;;;119.68;114.38;;;14.20;98.00;;;;;;4994566;28;20037;-81
2022/12/19 08:44:25;;;;;;;121.18;115.78;;;14.30;98.00;;;;;;5027093;28;20033;-81
2022/12/19 08:46:51;;;;;;;112.10;107.20;;;14.30;98.00;;;;;;5027644;28;20029;-81
2022/12/19 08:49:18;;;;;;;117.63;112.35;;;14.30;97.90;;;;;;5011035;28;20136;-81
2022/12/19 08:51:44;;;;;;;118.90;113.60;;;14.40;97.90;;;;;;5028290;28;20029;-82
2022/12/19 08:54:11;;;;;;;;;;;14.40;97.90;;;;;;5028611;28;20025;-81
2022/12/19 08:56:37;;;;;;;118.22;113.03;;;14.40;97.90;;;;;;5028060;28;19909;-81
2022/12/19 08:59:03;;;;;;;;;;;14.40;97.80;;;;;;5027947;28;20171;-81
2022/12/19 09:01:29;;;;;;;116.53;111.55;;;14.40;97.90;;;;;;5029470;28;19909;-80
2022/12/19 09:03:58;;;;;;;113.32;108.32;;;14.40;97.80;;;;;;5029184;28;20041;-81
2022/12/19 09:06:24;;;;;;;114.13;109.32;;;14.50;97.90;;;;;;5027767;28;20057;-81
2022/12/19 09:08:50;;;;;;;108.20;103.45;;;14.50;97.90;;;;;;5022040;28;20414;-81
2022/12/19 09:11:18;;;;;;;104.38;99.97;;;14.60;97.90;;;;;;5019567;28;20038;-80
2022/12/19 09:13:45;;;;;;;95.40;91.40;;;14.60;97.90;;;;;;5029295;28;20033;-79
2022/12/19 09:16:15;;;;;;;97.03;92.93;;;14.60;97.90;;;;;;5037647;28;20479;-79
2022/12/19 09:18:42;;;;;;;103.60;99.20;;;14.70;97.90;;;;;;5035512;28;20474;-80
2022/12/19 09:21:08;;;;;;;88.18;84.57;;;14.70;97.90;;;;;;5027838;28;20083;-81
2022/12/19 09:23:35;;;;;;;74.75;71.75;;;14.70;97.90;;;;;;5029263;28;20056;-82
2022/12/19 09:26:06;;;;;;;78.93;75.65;;;14.70;97.90;;;;;;5036605;28;20051;-81
2022/12/19 09:28:33;;;;;;;63.70;61.00;;;14.80;97.90;;;;;;5037324;28;20355;-82
2022/12/19 09:31:20;;;;;;;74.75;71.55;;;14.80;97.90;;;;;;5038875;28;20478;-79
2022/12/19 09:33:47;;;;;;;68.22;65.32;;;14.80;97.90;;;;;;5041406;28;20043;-81
2022/12/19 09:36:18;;;;;;;84.65;81.25;;;14.80;97.90;;;;;;5043045;28;20060;-80
2022/12/19 09:38:45;;;;;;;66.55;63.67;;;14.80;97.90;;;;;;5041241;28;20056;-80
2022/12/19 09:41:29;;;;;;;;;;;14.90;97.90;;;;;;5040491;28;20100;-80
2022/12/19 09:44:16;;;;;;;68.90;65.90;;;14.90;97.90;;;;;;5032248;28;19905;-80
2022/12/19 09:47:00;;;;;;;68.45;65.55;;;14.90;97.80;;;;;;5043422;28;20024;-80
2022/12/19 09:49:37;;;;;;;71.00;68.00;;;15.00;97.90;;;;;;5047945;28;20078;-80
2022/12/19 09:52:10;;;;;;;;;;;14.90;97.80;;;;;;5044819;28;20017;-79
2022/12/19 09:54:41;;;;;;;73.43;70.32;;;14.90;97.80;;;;;;5041657;28;19912;-80
2022/12/19 09:57:22;;;;;;;72.72;69.72;;;15.00;97.80;;;;;;5044601;28;20067;-81
2022/12/19 09:59:56;;;;;;;79.05;75.75;;;14.90;97.80;;;;;;5043347;28;20021;-79
2022/12/19 10:02:40;;;;;;;72.32;69.32;;;14.90;97.90;;;;;;5041203;28;20017;-81
2022/12/19 10:05:30;;;;;;;76.88;73.68;;;14.90;97.90;;;;;;5041441;28;20029;-81
2022/12/19 10:07:56;;;;;;;75.55;72.35;;;14.90;97.90;;;;;;5038000;28;20022;-81
2022/12/19 10:11:08;;;;;;;73.05;69.95;;;14.90;97.90;;;;;;5015107;28;20045;-80
2022/12/19 10:13:45;;;;;;;69.35;66.45;;;15.00;97.90;;;;;;5020777;28;20025;-80
2022/12/19 10:16:32;;;;;;;71.90;68.90;;;15.00;97.90;;;;;;5030540;28;20028;-81
2022/12/19 10:19:21;;;;;;;;;;;15.00;97.90;;;;;;5040063;28;20390;-80
2022/12/19 10:22:02;;;;;;;118.15;112.97;;;15.00;97.80;;;;;;5034913;28;19908;-80
2022/12/19 10:24:37;;;;;;;127.57;121.88;;;14.90;97.70;;;;;;5042627;28;20024;-79
2022/12/19 10:27:16;;;;;;;134.38;128.43;;;14.70;97.60;;;;;;5040119;28;20026;-80
2022/12/19 10:30:03;;;;;;;135.57;129.55;;;14.50;97.70;;;;;;5043556;28;20096;-80
2022/12/19 10:33:00;;;;;;;136.70;130.60;;;14.30;97.80;;;;;;5043009;28;20026;-79
2022/12/19 10:35:41;;;;;;;141.50;135.02;;;14.30;97.90;;;;;;5051492;28;20252;-81
2022/12/19 10:38:20;;;;;;;149.63;142.73;;;14.20;97.90;;;;;;5049539;28;20010;-83
2022/12/19 10:41:14;;;;;;;152.63;145.63;;;14.10;97.90;;;;;;5050365;28;20024;-84
2022/12/19 10:44:01;;;;;;;150.13;143.32;;;14.10;97.90;;;;;;5051122;28;20033;-83
2022/12/19 10:46:51;;;;;;;141.93;135.32;;;14.10;98.00;;;;;;5040693;28;20025;-84
2022/12/19 10:49:20;;;;;;;142.13;135.55;;;14.10;98.00;;;;;;5047661;28;20412;-82
2022/12/19 10:52:04;;;;;;;138.43;132.07;;;14.10;98.00;;;;;;5038977;28;20025;-82
2022/12/19 10:54:38;;;;;;;133.80;127.70;;;14.10;98.00;;;;;;5043649;28;20052;-83
2022/12/19 10:57:31;;;;;;;126.32;120.68;;;14.10;98.10;;;;;;5045239;28;20021;-80
2022/12/19 11:00:02;;;;;;;126.07;120.40;;;14.10;98.30;;;;;;5029709;28;20056;-82
2022/12/19 11:02:37;;;;;;;121.85;116.38;;;14.20;98.10;;;;;;5050043;28;20029;-82
2022/12/19 11:05:20;;;;;;;122.30;116.90;;;14.20;98.00;;;;;;5048961;28;20017;-84
2022/12/19 11:08:07;;;;;;;127.40;121.65;;;14.30;98.00;;;;;;5031454;28;20075;-82
2022/12/19 11:10:46;;;;;;;;;;;14.30;98.00;;;;;;5041626;28;20025;-80
2022/12/19 11:13:23;;;;;;;133.27;127.22;;;14.30;98.00;;;;;;5051837;28;20336;-80
2022/12/19 11:15:54;;;;;;;140.52;134.00;;;14.20;97.90;;;;;;5048738;28;20025;-83
2022/12/19 11:18:20;;;;;;;144.40;137.70;;;14.20;97.90;;;;;;5022569;28;20017;-85
2022/12/19 11:20:53;;;;;;;;;;;14.10;97.90;;;;;;5035496;28;20029;-85
2022/12/19 11:23:19;;;;;;;147.45;140.55;;;14.10;97.90;;;;;;5050424;28;19917;-83
2022/12/19 11:25:54;;;;;;;149.45;142.40;;;14.10;97.90;;;;;;5039507;28;20136;-83
2022/12/19 11:28:33;;;;;;;151.27;144.18;;;14.00;97.90;;;;;;5035595;28;20032;-81
2022/12/19 11:31:05;;;;;;;145.27;138.48;;;14.10;98.00;;;;;;5051296;28;20021;-84
2022/12/19 11:33:31;;;;;;;147.43;140.55;;;14.00;98.20;;;;;;5041225;28;20485;-82
2022/12/19 11:35:59;;;;;;;147.07;140.20;;;14.10;98.00;;;;;;5038568;28;20039;-83
2022/12/19 11:38:28;;;;;;;146.93;140.05;;;14.10;98.00;;;;;;5041222;28;20416;-84
2022/12/19 11:41:01;;;;;;;150.70;143.70;;;14.10;98.00;;;;;;5034740;28;20120;-85
2022/12/19 11:43:36;;;;;;;146.63;139.80;;;14.10;98.00;;;;;;5034568;28;20084;-85
2022/12/19 11:46:10;;;;;;;147.13;140.23;;;14.10;98.10;;;;;;5046866;28;20021;-82
2022/12/19 11:48:39;;;;;;;147.13;140.35;;;14.20;98.10;;;;;;5038613;28;20140;-82
2022/12/19 11:51:17;;;;;;;144.68;138.07;;;14.30;98.10;;;;;;5030827;28;20101;-80
2022/12/19 11:54:06;;;;;;;141.40;134.90;;;14.40;98.00;;;;;;5031935;28;20026;-79
2022/12/19 11:56:32;;;;;;;141.07;134.63;;;14.40;98.00;;;;;;5044014;28;20046;-83
2022/12/19 11:59:15;;;;;;;137.40;131.10;;;14.40;97.90;;;;;;5033076;28;20036;-82
2022/12/19 12:01:53;;;;;;;139.60;133.23;;;14.40;97.90;;;;;;5050897;28;20434;-81
2022/12/19 12:04:58;;;;;;;135.88;129.68;;;14.40;97.90;;;;;;5048634;28;20139;-81
2022/12/19 12:07:27;;;;;;;134.35;128.25;;;14.50;98.10;;;;;;5047875;28;20037;-81
2022/12/19 12:10:18;;;;;;;128.82;123.03;;;14.60;98.10;;;;;;5049967;28;20025;-81
2022/12/19 12:12:49;;;;;;;118.45;113.05;;;14.70;98.20;;;;;;5044647;28;20037;-81
2022/12/19 12:15:36;;;;;;;79.32;75.50;;;14.90;98.30;;;;;;5048103;28;20028;-81
2022/12/19 12:18:22;;;;;;;76.05;72.63;;;15.40;98.90;;;;;;5048538;28;20075;-79
2022/12/19 12:21:18;;;;;;;83.18;79.47;;;15.90;98.70;;;;;;5042248;28;20405;-79
2022/12/19 12:24:29;;;;;;;92.10;88.10;;;16.20;98.30;;;;;;5049492;28;20052;-79
2022/12/19 12:27:29;;;;;;;93.32;89.32;;;16.20;97.90;;;;;;5049463;28;20097;-79
2022/12/19 12:30:03;;;;;;;98.78;94.57;;;16.00;97.70;;;;;;5048019;28;20039;-78
2022/12/19 12:32:53;;;;;;;91.30;87.38;;;15.80;97.60;;;;;;5049761;28;20054;-80
2022/12/19 12:35:35;;;;;;;89.78;85.97;;;15.70;97.80;;;;;;5049420;28;20025;-78
2022/12/19 12:38:16;;;;;;;91.38;87.47;;;15.60;97.90;;;;;;5049920;28;20083;-78
2022/12/19 12:40:56;;;;;;;83.97;80.38;;;15.60;97.90;;;;;;5049296;28;20021;-77
2022/12/19 12:43:48;;;;;;;78.90;75.60;;;15.40;97.80;;;;;;5049367;28;20484;-74
2022/12/19 12:46:20;;;;;;;79.97;76.68;;;15.40;97.90;;;;;;5037222;28;20044;-77
2022/12/19 12:48:51;;;;;;;66.28;63.58;;;15.30;97.90;;;;;;5049569;28;20036;-77
2022/12/19 12:51:17;;;;;;;57.97;55.58;;;15.20;97.80;;;;;;5048162;28;20381;-81
2022/12/19 12:53:44;;;;;;;;;;;15.10;97.80;;;;;;5048762;28;20071;-81
2022/12/19 12:56:13;;;;;;;58.85;56.45;;;15.00;97.90;;;;;;5049314;28;19928;-80